createdAt,value
2016-10-10T00:00:05.787Z,99.99
2016-10-10T00:01:06.460Z,99.99
2016-10-10T00:02:07.123Z,99.99
2016-10-10T00:03:07.799Z,99.99
2016-10-10T00:04:08.466Z,99.99
2016-10-10T00:05:09.140Z,99.99
2016-10-10T00:06:09.800Z,99.99
2016-10-10T00:07:10.481Z,99.99
2016-10-10T00:08:11.137Z,99.99
2016-10-10T00:09:11.806Z,99.99
2016-10-10T00:10:12.465Z,99.99
2016-10-10T00:11:13.127Z,99.99
2016-10-10T00:12:13.800Z,99.99
2016-10-10T00:13:14.453Z,99.99
2016-10-10T00:14:15.110Z,99.99
2016-10-10T00:15:15.782Z,99.99
2016-10-10T00:16:16.446Z,99.99
2016-10-10T00:17:17.103Z,99.99
2016-10-10T00:18:17.789Z,99.99
2016-10-10T00:19:18.455Z,99.99
2016-10-10T00:20:19.111Z,99.99
2016-10-10T00:21:19.778Z,99.99
2016-10-10T00:22:20.433Z,99.99
2016-10-10T00:23:21.101Z,99.99
2016-10-10T00:24:21.774Z,99.99
2016-10-10T00:25:22.454Z,99.99
2016-10-10T00:26:23.146Z,99.99
2016-10-10T00:27:23.805Z,99.99
2016-10-10T00:28:24.470Z,99.99
2016-10-10T00:29:25.150Z,99.99
2016-10-10T00:30:25.825Z,99.99
2016-10-10T00:31:26.490Z,99.99
2016-10-10T00:32:27.154Z,99.99
2016-10-10T00:33:27.815Z,99.99
2016-10-10T00:34:28.480Z,99.99
2016-10-10T00:35:29.134Z,99.99
2016-10-10T00:36:29.795Z,99.99
2016-10-10T00:37:30.462Z,99.99
2016-10-10T00:38:31.109Z,99.99
2016-10-10T00:39:31.770Z,99.99
2016-10-10T00:40:32.431Z,99.99
2016-10-10T00:41:33.105Z,99.99
2016-10-10T00:42:33.776Z,99.99
2016-10-10T00:43:34.437Z,99.99
2016-10-10T00:44:35.126Z,99.99
2016-10-10T00:45:35.797Z,99.99
2016-10-10T00:46:36.459Z,99.99
2016-10-10T00:47:37.124Z,99.99
2016-10-10T00:48:37.806Z,99.99
2016-10-10T00:49:38.484Z,99.99
2016-10-10T00:50:39.175Z,99.99
2016-10-10T00:51:39.837Z,99.99
2016-10-10T00:52:40.499Z,99.99
2016-10-10T00:53:41.162Z,99.99
2016-10-10T00:54:41.820Z,99.99
2016-10-10T00:55:42.486Z,99.99
2016-10-10T00:56:43.149Z,99.99
2016-10-10T00:57:43.806Z,99.99
2016-10-10T00:58:44.472Z,99.99
2016-10-10T00:59:45.135Z,99.99
2016-10-10T01:00:45.803Z,99.99
2016-10-10T01:01:46.474Z,99.99
2016-10-10T01:02:47.144Z,99.99
2016-10-10T01:03:47.799Z,99.99
2016-10-10T01:04:48.463Z,99.99
2016-10-10T01:05:49.162Z,99.99
2016-10-10T01:06:49.829Z,99.99
2016-10-10T01:07:50.485Z,99.99
2016-10-10T01:08:51.147Z,99.99
2016-10-10T01:09:51.799Z,99.99
2016-10-10T01:10:52.462Z,99.99
2016-10-10T01:11:53.161Z,99.99
2016-10-10T01:12:53.824Z,99.99
2016-10-10T01:13:54.491Z,99.99
2016-10-10T01:14:55.148Z,99.99
2016-10-10T01:15:55.810Z,99.99
2016-10-10T01:16:56.473Z,99.99
2016-10-10T01:17:57.150Z,99.99
2016-10-10T01:18:57.812Z,99.99
2016-10-10T01:19:58.477Z,99.99
2016-10-10T01:20:59.155Z,99.99
2016-10-10T01:21:59.826Z,99.99
2016-10-10T01:23:00.486Z,99.99
2016-10-10T01:24:01.159Z,99.99
2016-10-10T01:25:01.838Z,99.99
2016-10-10T01:26:02.509Z,99.99
2016-10-10T01:27:03.173Z,99.99
2016-10-10T01:28:03.850Z,99.99
2016-10-10T01:29:04.529Z,99.99
2016-10-10T01:30:05.197Z,99.99
2016-10-10T01:31:05.873Z,99.99
2016-10-10T01:32:06.540Z,99.99
2016-10-10T01:33:07.219Z,99.99
2016-10-10T01:34:07.885Z,99.99
2016-10-10T01:35:08.564Z,99.99
2016-10-10T01:36:09.229Z,99.99
2016-10-10T01:37:09.909Z,99.99
2016-10-10T01:38:10.579Z,99.99
2016-10-10T01:39:11.252Z,99.99
2016-10-10T01:40:11.916Z,99.99
2016-10-10T01:41:12.580Z,99.99
2016-10-10T01:42:13.261Z,99.99
2016-10-10T01:43:13.930Z,99.99
2016-10-10T01:44:14.604Z,99.99
2016-10-10T01:45:15.243Z,99.99
2016-10-10T01:46:15.914Z,99.99
2016-10-10T01:47:16.569Z,99.99
2016-10-10T01:48:17.220Z,99.99
2016-10-10T01:49:17.882Z,99.99
2016-10-10T01:50:18.540Z,99.99
2016-10-10T01:51:19.232Z,99.99
2016-10-10T01:52:19.891Z,99.99
2016-10-10T01:53:20.551Z,99.99
2016-10-10T01:54:21.251Z,99.99
2016-10-10T01:55:21.918Z,99.99
2016-10-10T01:56:22.571Z,99.99
2016-10-10T01:57:23.250Z,99.99
2016-10-10T01:58:23.913Z,99.99
2016-10-10T01:59:24.617Z,99.99
2016-10-10T02:00:25.279Z,99.99
2016-10-10T02:01:25.939Z,99.99
2016-10-10T02:02:26.604Z,99.99
2016-10-10T02:03:27.275Z,99.99
2016-10-10T02:04:27.946Z,99.99
2016-10-10T02:05:28.616Z,99.99
2016-10-10T02:06:29.302Z,99.99
2016-10-10T02:07:29.971Z,99.99
2016-10-10T02:08:30.636Z,99.99
2016-10-10T02:09:31.314Z,99.99
2016-10-10T02:10:31.982Z,99.99
2016-10-10T02:11:32.658Z,99.99
2016-10-10T02:12:33.324Z,99.99
2016-10-10T02:13:33.997Z,99.99
2016-10-10T02:14:34.669Z,99.99
2016-10-10T02:15:35.350Z,99.99
2016-10-10T02:16:36.022Z,99.99
2016-10-10T02:17:36.686Z,99.99
2016-10-10T02:18:37.349Z,99.99
2016-10-10T02:19:38.006Z,99.99
2016-10-10T02:20:38.656Z,99.99
2016-10-10T02:21:39.330Z,99.99
2016-10-10T02:22:40.011Z,99.99
2016-10-10T02:23:40.676Z,99.99
2016-10-10T02:24:41.342Z,99.99
2016-10-10T02:25:42.024Z,99.99
2016-10-10T02:26:42.679Z,99.99
2016-10-10T02:27:43.409Z,99.99
2016-10-10T02:28:44.094Z,99.99
2016-10-10T02:29:44.753Z,99.99
2016-10-10T02:30:45.433Z,99.99
2016-10-10T02:31:46.098Z,99.99
2016-10-10T02:32:46.772Z,99.99
2016-10-10T02:33:47.447Z,99.99
2016-10-10T02:34:48.114Z,99.99
2016-10-10T02:35:48.793Z,99.99
2016-10-10T02:36:49.464Z,99.99
2016-10-10T02:37:50.136Z,99.99
2016-10-10T02:38:50.803Z,99.99
2016-10-10T02:39:51.482Z,99.99
2016-10-10T02:40:52.155Z,99.99
2016-10-10T02:41:52.841Z,99.99
2016-10-10T02:42:53.509Z,99.99
2016-10-10T02:43:54.169Z,99.99
2016-10-10T02:44:54.840Z,99.99
2016-10-10T02:45:55.513Z,99.99
2016-10-10T02:46:56.202Z,99.99
2016-10-10T02:47:56.855Z,99.99
2016-10-10T02:48:57.511Z,99.99
2016-10-10T02:49:58.162Z,99.99
2016-10-10T02:50:58.806Z,99.99
2016-10-10T02:51:59.455Z,99.99
2016-10-10T02:53:00.135Z,99.99
2016-10-10T02:54:00.787Z,99.99
2016-10-10T02:55:01.474Z,99.99
2016-10-10T02:56:02.130Z,99.99
2016-10-10T02:57:02.790Z,99.99
2016-10-10T02:58:03.447Z,99.99
2016-10-10T02:59:04.096Z,99.99
2016-10-10T03:00:04.782Z,99.99
2016-10-10T03:01:05.441Z,99.99
2016-10-10T03:02:06.114Z,99.99
2016-10-10T03:03:06.789Z,99.99
2016-10-10T03:04:07.463Z,99.99
2016-10-10T03:05:08.129Z,99.99
2016-10-10T03:06:08.819Z,99.99
2016-10-10T03:07:09.475Z,99.99
2016-10-10T03:08:10.134Z,99.99
2016-10-10T03:09:10.790Z,99.99
2016-10-10T03:10:11.449Z,99.99
2016-10-10T03:11:12.113Z,99.99
2016-10-10T03:12:12.784Z,99.99
2016-10-10T03:13:13.468Z,99.99
2016-10-10T03:14:14.187Z,99.99
2016-10-10T03:15:14.852Z,99.99
2016-10-10T03:16:15.528Z,99.99
2016-10-10T03:17:16.196Z,99.99
2016-10-10T03:18:16.860Z,99.99
2016-10-10T03:19:17.513Z,99.99
2016-10-10T03:20:18.183Z,99.99
2016-10-10T03:21:18.852Z,99.99
2016-10-10T03:22:19.524Z,99.99
2016-10-10T03:23:20.188Z,99.99
2016-10-10T03:24:20.855Z,99.99
2016-10-10T03:25:21.528Z,99.99
2016-10-10T03:26:22.201Z,99.99
2016-10-10T03:27:22.873Z,99.99
2016-10-10T03:28:23.562Z,99.99
2016-10-10T03:29:24.213Z,99.99
2016-10-10T03:30:24.886Z,99.99
2016-10-10T03:31:25.572Z,99.99
2016-10-10T03:32:26.255Z,99.99
2016-10-10T03:33:26.910Z,99.99
2016-10-10T03:34:27.576Z,99.99
2016-10-10T03:35:28.251Z,99.99
2016-10-10T03:36:28.936Z,99.99
2016-10-10T03:37:29.603Z,99.99
2016-10-10T03:38:30.276Z,99.99
2016-10-10T03:39:30.942Z,99.99
2016-10-10T03:40:31.627Z,99.99
2016-10-10T03:41:32.295Z,99.99
2016-10-10T03:42:32.959Z,99.99
2016-10-10T03:43:33.633Z,99.99
2016-10-10T03:44:34.305Z,99.99
2016-10-10T03:45:34.979Z,99.99
2016-10-10T03:46:35.652Z,99.99
2016-10-10T03:47:36.324Z,99.99
2016-10-10T03:48:36.991Z,99.99
2016-10-10T03:49:37.670Z,99.99
2016-10-10T03:50:38.341Z,99.99
2016-10-10T03:51:39.020Z,99.99
2016-10-10T03:52:39.687Z,99.99
2016-10-10T03:53:40.351Z,99.99
2016-10-10T03:54:41.022Z,99.99
2016-10-10T03:55:41.712Z,99.99
2016-10-10T03:56:42.372Z,99.99
2016-10-10T03:57:43.045Z,99.99
2016-10-10T03:58:43.724Z,99.99
2016-10-10T03:59:44.414Z,99.99
2016-10-10T04:00:45.071Z,99.99
2016-10-10T04:01:45.741Z,99.99
2016-10-10T04:02:46.442Z,99.99
2016-10-10T04:03:47.143Z,99.99
2016-10-10T04:04:48.491Z,99.99
2016-10-10T04:05:49.160Z,99.99
2016-10-10T04:06:49.825Z,99.99
2016-10-10T04:07:50.518Z,99.99
2016-10-10T04:08:51.247Z,99.99
2016-10-10T04:09:51.929Z,99.99
2016-10-10T04:10:52.628Z,99.99
2016-10-10T04:11:53.314Z,99.99
2016-10-10T04:12:54.714Z,99.99
2016-10-10T04:13:55.400Z,99.99
2016-10-10T04:14:56.106Z,99.99
2016-10-10T04:15:56.813Z,99.99
2016-10-10T04:16:57.494Z,99.99
2016-10-10T04:17:58.189Z,99.99
2016-10-10T04:18:58.855Z,99.99
2016-10-10T04:19:59.518Z,99.99
2016-10-10T04:21:00.229Z,99.99
2016-10-10T04:22:00.956Z,99.99
2016-10-10T04:23:01.623Z,99.99
2016-10-10T04:24:02.319Z,99.99
2016-10-10T04:25:03.077Z,99.99
2016-10-10T04:26:03.784Z,99.99
2016-10-10T04:27:04.448Z,99.99
2016-10-10T04:28:05.142Z,99.99
2016-10-10T04:29:05.804Z,99.99
2016-10-10T04:30:06.460Z,99.99
2016-10-10T04:31:07.136Z,99.99
2016-10-10T04:32:07.826Z,99.99
2016-10-10T04:33:08.495Z,99.99
2016-10-10T04:34:09.157Z,99.99
2016-10-10T04:35:09.809Z,99.99
2016-10-10T04:36:10.477Z,99.99
2016-10-10T04:37:11.140Z,99.99
2016-10-10T04:38:11.790Z,99.99
2016-10-10T04:39:12.462Z,99.99
2016-10-10T04:40:13.128Z,99.99
2016-10-10T04:41:13.790Z,99.99
2016-10-10T04:42:14.466Z,99.99
2016-10-10T04:43:15.135Z,99.99
2016-10-10T04:44:15.806Z,99.99
2016-10-10T04:45:16.490Z,99.99
2016-10-10T04:46:17.148Z,99.99
2016-10-10T04:47:17.818Z,99.99
2016-10-10T04:48:18.490Z,99.99
2016-10-10T04:49:19.173Z,99.99
2016-10-10T04:50:19.840Z,99.99
2016-10-10T04:51:20.524Z,99.99
2016-10-10T04:52:21.186Z,99.99
2016-10-10T04:53:21.857Z,99.99
2016-10-10T04:54:22.531Z,99.99
2016-10-10T04:55:23.198Z,99.99
2016-10-10T04:56:23.877Z,99.99
2016-10-10T04:57:24.581Z,99.99
2016-10-10T04:58:25.257Z,99.99
2016-10-10T04:59:25.940Z,99.99
2016-10-10T05:00:26.608Z,99.99
2016-10-10T05:01:27.271Z,99.99
2016-10-10T05:02:27.928Z,99.99
2016-10-10T05:03:28.596Z,99.99
2016-10-10T05:04:29.249Z,99.99
2016-10-10T05:05:29.918Z,99.99
2016-10-10T05:06:30.564Z,99.99
2016-10-10T05:07:31.221Z,99.99
2016-10-10T05:08:31.883Z,99.99
2016-10-10T05:09:32.542Z,99.99
2016-10-10T05:10:33.206Z,99.99
2016-10-10T05:11:33.876Z,99.99
2016-10-10T05:12:34.538Z,99.99
2016-10-10T05:13:35.195Z,99.99
2016-10-10T05:14:35.885Z,99.99
2016-10-10T05:15:36.571Z,99.99
2016-10-10T05:16:37.233Z,99.99
2016-10-10T05:17:37.891Z,99.99
2016-10-10T05:18:38.562Z,99.99
2016-10-10T05:19:39.240Z,99.99
2016-10-10T05:20:39.916Z,99.99
2016-10-10T05:21:40.578Z,99.99
2016-10-10T05:22:41.250Z,99.99
2016-10-10T05:23:41.932Z,99.99
2016-10-10T05:24:42.637Z,99.99
2016-10-10T05:25:43.424Z,99.99
2016-10-10T05:26:44.094Z,99.99
2016-10-10T05:27:44.767Z,99.99
2016-10-10T05:28:45.438Z,99.99
2016-10-10T05:29:46.348Z,99.99
2016-10-10T05:30:47.091Z,99.99
2016-10-10T05:31:47.907Z,99.99
2016-10-10T05:32:48.696Z,99.99
2016-10-10T05:33:49.363Z,99.99
2016-10-10T05:34:50.045Z,99.99
2016-10-10T05:35:50.714Z,99.99
2016-10-10T05:36:51.382Z,99.99
2016-10-10T05:37:52.050Z,99.99
2016-10-10T05:38:52.768Z,99.99
2016-10-10T05:39:53.418Z,99.99
2016-10-10T05:40:54.091Z,99.99
2016-10-10T05:41:54.821Z,99.99
2016-10-10T05:42:55.536Z,99.99
2016-10-10T05:43:56.197Z,99.99
2016-10-10T05:44:56.861Z,99.99
2016-10-10T05:45:57.522Z,99.99
2016-10-10T05:46:58.190Z,99.99
2016-10-10T05:47:58.848Z,99.99
2016-10-10T05:48:59.513Z,99.99
2016-10-10T05:50:00.169Z,99.99
2016-10-10T05:51:00.835Z,99.99
2016-10-10T05:52:01.520Z,99.99
2016-10-10T05:53:02.194Z,99.99
2016-10-10T05:54:02.854Z,99.99
2016-10-10T05:55:03.518Z,99.99
2016-10-10T05:56:04.197Z,99.99
2016-10-10T05:57:04.962Z,99.99
2016-10-10T05:58:05.657Z,99.99
2016-10-10T05:59:06.326Z,99.99
2016-10-10T06:00:07.016Z,99.99
2016-10-10T06:01:07.703Z,99.99
2016-10-10T06:02:08.412Z,99.99
2016-10-10T06:03:09.069Z,99.99
2016-10-10T06:04:09.734Z,99.99
2016-10-10T06:05:10.423Z,99.99
2016-10-10T06:06:11.090Z,99.99
2016-10-10T06:07:11.759Z,99.99
2016-10-10T06:08:12.423Z,99.99
2016-10-10T06:09:13.092Z,99.99
2016-10-10T06:10:13.766Z,99.99
2016-10-10T06:11:14.469Z,99.99
2016-10-10T06:12:15.124Z,99.99
2016-10-10T06:13:15.886Z,99.99
2016-10-10T06:14:16.665Z,99.99
2016-10-10T06:15:17.477Z,99.99
2016-10-10T06:16:18.266Z,99.99
2016-10-10T06:17:19.060Z,99.99
2016-10-10T06:18:19.904Z,99.99
2016-10-10T06:19:20.832Z,99.99
2016-10-10T06:20:21.657Z,99.99
2016-10-10T06:21:22.469Z,99.99
2016-10-10T06:22:23.221Z,99.99
2016-10-10T06:23:23.964Z,99.99
2016-10-10T06:24:24.756Z,99.99
2016-10-10T06:25:25.527Z,99.99
2016-10-10T06:26:26.209Z,99.99
2016-10-10T06:27:27.045Z,99.99
2016-10-10T06:28:27.809Z,99.99
2016-10-10T06:29:28.528Z,99.99
2016-10-10T06:30:29.310Z,99.99
2016-10-10T06:31:30.087Z,99.99
2016-10-10T06:32:30.823Z,99.99
2016-10-10T06:33:31.527Z,99.99
2016-10-10T06:34:32.306Z,99.99
2016-10-10T06:35:33.063Z,99.99
2016-10-10T06:36:33.797Z,99.99
2016-10-10T06:37:34.551Z,99.99
2016-10-10T06:38:35.337Z,99.99
2016-10-10T06:39:36.117Z,99.99
2016-10-10T06:40:36.826Z,99.99
2016-10-10T06:41:37.648Z,99.99
2016-10-10T06:42:38.387Z,99.99
2016-10-10T06:43:39.165Z,99.99
2016-10-10T06:44:39.908Z,99.99
2016-10-10T06:45:40.608Z,99.99
2016-10-10T06:46:41.338Z,99.99
2016-10-10T06:47:42.102Z,99.99
2016-10-10T06:48:42.922Z,99.99
2016-10-10T06:49:43.667Z,99.99
2016-10-10T06:50:44.367Z,99.99
2016-10-10T06:51:45.104Z,99.99
2016-10-10T06:52:45.890Z,99.99
2016-10-10T06:53:46.620Z,99.99
2016-10-10T06:54:47.329Z,99.99
2016-10-10T06:55:48.020Z,99.99
2016-10-10T06:56:48.844Z,99.99
2016-10-10T06:57:49.600Z,99.99
2016-10-10T06:58:50.325Z,99.99
2016-10-10T06:59:51.101Z,99.99
2016-10-10T07:00:51.842Z,99.99
2016-10-10T07:01:52.606Z,99.99
2016-10-10T07:02:53.348Z,99.99
2016-10-10T07:03:54.148Z,99.99
2016-10-10T07:04:54.922Z,99.99
2016-10-10T07:05:55.758Z,99.99
2016-10-10T07:06:56.530Z,99.99
2016-10-10T07:07:57.307Z,99.99
2016-10-10T07:08:58.064Z,99.99
2016-10-10T07:09:58.776Z,99.99
2016-10-10T07:10:59.565Z,99.99
2016-10-10T07:12:00.308Z,99.99
2016-10-10T07:13:01.134Z,99.99
2016-10-10T07:14:01.907Z,99.55
2016-10-10T07:15:02.709Z,98.97
2016-10-10T07:16:03.514Z,99.64
2016-10-10T07:17:04.289Z,99.36
2016-10-10T07:18:05.049Z,99.26
2016-10-10T07:19:05.793Z,99.36
2016-10-10T07:20:06.579Z,98.97
2016-10-10T07:21:07.390Z,99.74
2016-10-10T07:22:08.181Z,99.45
2016-10-10T07:23:08.962Z,99.16
2016-10-10T07:24:09.678Z,99.64
2016-10-10T07:25:10.373Z,99.12
2016-10-10T07:26:11.068Z,99.55
2016-10-10T07:27:11.762Z,99.22
2016-10-10T07:28:12.496Z,99.41
2016-10-10T07:29:13.190Z,99.79
2016-10-10T07:30:13.965Z,99.36
2016-10-10T07:31:14.655Z,99.31
2016-10-10T07:32:15.333Z,99.69
2016-10-10T07:33:16.027Z,99.6
2016-10-10T07:34:16.734Z,99.6
2016-10-10T07:35:17.510Z,99.41
2016-10-10T07:36:18.202Z,98.93
2016-10-10T07:37:18.890Z,99.02
2016-10-10T07:38:19.615Z,98.83
2016-10-10T07:39:20.319Z,98.27
2016-10-10T07:40:21.025Z,98.27
2016-10-10T07:41:21.792Z,98.74
2016-10-10T07:42:22.496Z,98.55
2016-10-10T07:43:23.218Z,98.55
2016-10-10T07:44:23.921Z,98.08
2016-10-10T07:45:24.658Z,98.27
2016-10-10T07:46:25.375Z,97.98
2016-10-10T07:47:26.130Z,98.03
2016-10-10T07:48:26.878Z,97.79
2016-10-10T07:49:27.570Z,97.79
2016-10-10T07:50:28.273Z,97.69
2016-10-10T07:51:28.995Z,97.69
2016-10-10T07:52:29.727Z,97.69
2016-10-10T07:53:30.416Z,97.03
2016-10-10T07:54:31.121Z,96.79
2016-10-10T07:55:31.848Z,97.55
2016-10-10T07:56:32.588Z,97.46
2016-10-10T07:57:33.307Z,97.55
2016-10-10T07:58:34.032Z,97.55
2016-10-10T07:59:34.777Z,96.7
2016-10-10T08:00:35.503Z,97.08
2016-10-10T08:01:36.216Z,97.08
2016-10-10T08:02:36.997Z,97.17
2016-10-10T08:03:37.770Z,96.6
2016-10-10T08:04:38.672Z,96.51
2016-10-10T08:05:39.523Z,96.31
2016-10-10T08:06:40.289Z,96.12
2016-10-10T08:07:41.015Z,96.03
2016-10-10T08:08:41.706Z,95.36
2016-10-10T08:09:42.434Z,96.12
2016-10-10T08:10:43.159Z,95.65
2016-10-10T08:11:43.952Z,95.56
2016-10-10T08:12:44.687Z,95.46
2016-10-10T08:13:45.406Z,95.46
2016-10-10T08:14:46.120Z,95.17
2016-10-10T08:15:46.808Z,94.89
2016-10-10T08:16:47.521Z,94.37
2016-10-10T08:17:48.248Z,94.37
2016-10-10T08:18:48.989Z,94.74
2016-10-10T08:19:49.706Z,94.93
2016-10-10T08:20:50.388Z,95.32
2016-10-10T08:21:51.106Z,94.27
2016-10-10T08:22:51.860Z,94.17
2016-10-10T08:23:52.635Z,93.03
2016-10-10T08:24:53.327Z,92.94
2016-10-10T08:25:54.069Z,91.6
2016-10-10T08:26:54.790Z,90.65
2016-10-10T08:27:55.481Z,90.17
2016-10-10T08:28:56.186Z,90.46
2016-10-10T08:29:56.933Z,90.84
2016-10-10T08:30:57.673Z,90.56
2016-10-10T08:31:58.440Z,90.56
2016-10-10T08:32:59.211Z,90.84
2016-10-10T08:33:59.960Z,91.6
2016-10-10T08:35:00.810Z,91.7
2016-10-10T08:36:01.527Z,89.51
2016-10-10T08:37:02.295Z,90.36
2016-10-10T08:38:03.001Z,90.12
2016-10-10T08:39:03.785Z,90.08
2016-10-10T08:40:04.527Z,89.84
2016-10-10T08:41:05.417Z,90.03
2016-10-10T08:42:06.153Z,89.84
2016-10-10T08:43:06.871Z,90.31
2016-10-10T08:44:07.570Z,89.75
2016-10-10T08:45:08.321Z,89.65
2016-10-10T08:46:09.062Z,89.75
2016-10-10T08:47:09.784Z,89.75
2016-10-10T08:48:10.663Z,89.84
2016-10-10T08:49:11.415Z,89.55
2016-10-10T08:50:12.220Z,89.65
2016-10-10T08:51:12.936Z,89.55
2016-10-10T08:52:13.719Z,88.6
2016-10-10T08:53:14.775Z,88.41
2016-10-10T08:54:15.802Z,88.6
2016-10-10T08:55:16.637Z,88.03
2016-10-10T08:56:17.371Z,88.41
2016-10-10T08:57:18.238Z,88.7
2016-10-10T08:58:18.897Z,88.22
2016-10-10T08:59:19.600Z,88.41
2016-10-10T09:00:20.373Z,89.17
2016-10-10T09:01:21.146Z,89.55
2016-10-10T09:02:21.994Z,88.98
2016-10-10T09:03:22.810Z,88.22
2016-10-10T09:04:23.608Z,88.31
2016-10-10T09:05:24.393Z,88.03
2016-10-10T09:06:25.292Z,88.7
2016-10-10T09:07:26.138Z,88.7
2016-10-10T09:08:27.011Z,88.7
2016-10-10T09:09:27.815Z,87.55
2016-10-10T09:10:28.569Z,87.36
2016-10-10T09:11:29.354Z,88.03
2016-10-10T09:12:30.114Z,87.84
2016-10-10T09:13:30.857Z,88.03
2016-10-10T09:14:31.744Z,87.74
2016-10-10T09:15:32.679Z,86.51
2016-10-10T09:16:33.431Z,87.07
2016-10-10T09:17:34.307Z,86.93
2016-10-10T09:18:35.178Z,87.6
2016-10-10T09:19:36.008Z,87.69
2016-10-10T09:20:37.152Z,87.79
2016-10-10T09:21:38.041Z,87.31
2016-10-10T09:22:38.832Z,86.83
2016-10-10T09:23:39.644Z,86.83
2016-10-10T09:24:40.400Z,87.4
2016-10-10T09:25:42.024Z,86.45
2016-10-10T09:26:42.869Z,86.45
2016-10-10T09:27:43.636Z,85.31
2016-10-10T09:28:44.503Z,85.78
2016-10-10T09:29:45.343Z,86.36
2016-10-10T09:30:46.116Z,86.45
2016-10-10T09:31:46.936Z,86.36
2016-10-10T09:32:47.778Z,86.55
2016-10-10T09:33:48.503Z,86.16
2016-10-10T09:34:49.277Z,86.26
2016-10-10T09:35:50.057Z,85.31
2016-10-10T09:36:50.751Z,86.07
2016-10-10T09:37:51.600Z,86.26
2016-10-10T09:38:52.361Z,86.26
2016-10-10T09:39:53.116Z,86.16
2016-10-10T09:40:53.817Z,86.16
2016-10-10T09:41:54.566Z,86.16
2016-10-10T09:42:55.290Z,86.16
2016-10-10T09:43:56.097Z,86.36
2016-10-10T09:44:56.886Z,85.5
2016-10-10T09:45:57.656Z,86.07
2016-10-10T09:46:58.396Z,86.07
2016-10-10T09:47:59.154Z,85.97
2016-10-10T09:48:59.923Z,85.31
2016-10-10T09:50:00.717Z,85.69
2016-10-10T09:51:01.514Z,85.5
2016-10-10T09:52:02.339Z,85.97
2016-10-10T09:53:03.163Z,85.88
2016-10-10T09:54:04.137Z,85.41
2016-10-10T09:55:04.897Z,85.02
2016-10-10T09:56:05.690Z,85.02
2016-10-10T09:57:06.583Z,85.5
2016-10-10T09:58:07.480Z,85.41
2016-10-10T09:59:08.239Z,85.41
2016-10-10T10:00:08.992Z,85.31
2016-10-10T10:01:09.741Z,85.88
2016-10-10T10:02:10.509Z,84.55
2016-10-10T10:03:11.255Z,84.07
2016-10-10T10:04:12.017Z,84.36
2016-10-10T10:05:12.779Z,84.45
2016-10-10T10:06:13.576Z,84.26
2016-10-10T10:07:14.440Z,84.59
2016-10-10T10:08:15.210Z,84.4
2016-10-10T10:09:15.976Z,84.01
2016-10-10T10:10:16.705Z,82.78
2016-10-10T10:11:17.514Z,82.78
2016-10-10T10:12:18.312Z,84.01
2016-10-10T10:13:19.038Z,83.25
2016-10-10T10:14:19.862Z,82.68
2016-10-10T10:15:20.626Z,82.11
2016-10-10T10:16:21.403Z,82.3
2016-10-10T10:17:22.190Z,82.49
2016-10-10T10:18:22.921Z,82.24
2016-10-10T10:19:23.698Z,82.24
2016-10-10T10:20:24.516Z,81.77
2016-10-10T10:21:25.267Z,81.82
2016-10-10T10:22:26.100Z,81.82
2016-10-10T10:23:26.840Z,81.54
2016-10-10T10:24:27.653Z,81.63
2016-10-10T10:25:28.479Z,82.59
2016-10-10T10:26:29.271Z,82.59
2016-10-10T10:27:30.096Z,82.78
2016-10-10T10:28:30.852Z,83.06
2016-10-10T10:29:31.701Z,83.06
2016-10-10T10:30:32.458Z,83.44
2016-10-10T10:31:33.240Z,83.5
2016-10-10T10:32:33.989Z,83.54
2016-10-10T10:33:34.798Z,83.97
2016-10-10T10:34:35.610Z,84.2
2016-10-10T10:35:36.343Z,84.11
2016-10-10T10:36:37.123Z,83.54
2016-10-10T10:37:37.848Z,84.49
2016-10-10T10:38:38.667Z,84.88
2016-10-10T10:39:39.393Z,84.78
2016-10-10T10:40:40.157Z,84.69
2016-10-10T10:41:40.942Z,85.16
2016-10-10T10:42:41.688Z,85.25
2016-10-10T10:43:42.439Z,85.54
2016-10-10T10:44:43.189Z,85.45
2016-10-10T10:45:43.954Z,85.45
2016-10-10T10:46:44.716Z,85.54
2016-10-10T10:47:45.449Z,85.25
2016-10-10T10:48:46.238Z,85.54
2016-10-10T10:49:46.963Z,85.16
2016-10-10T10:50:47.740Z,85.25
2016-10-10T10:51:48.544Z,85.35
2016-10-10T10:52:49.348Z,85.64
2016-10-10T10:53:50.122Z,85.64
2016-10-10T10:54:50.854Z,85.88
2016-10-10T10:55:51.599Z,86.02
2016-10-10T10:56:52.337Z,86.02
2016-10-10T10:57:53.064Z,86.02
2016-10-10T10:58:53.819Z,86.21
2016-10-10T10:59:54.604Z,86.4
2016-10-10T11:00:55.320Z,85.83
2016-10-10T11:01:56.108Z,86.02
2016-10-10T11:02:56.858Z,85.83
2016-10-10T11:03:57.600Z,85.25
2016-10-10T11:04:58.342Z,85.45
2016-10-10T11:05:59.096Z,85.54
2016-10-10T11:06:59.871Z,85.16
2016-10-10T11:08:00.648Z,84.88
2016-10-10T11:09:01.412Z,84.69
2016-10-10T11:10:02.192Z,85.54
2016-10-10T11:11:02.979Z,85.83
2016-10-10T11:12:03.741Z,85.64
2016-10-10T11:13:04.512Z,85.64
2016-10-10T11:14:05.256Z,85.83
2016-10-10T11:15:06.011Z,85.54
2016-10-10T11:16:06.770Z,85.45
2016-10-10T11:17:07.497Z,84.97
2016-10-10T11:18:08.254Z,84.49
2016-10-10T11:19:09.048Z,83.54
2016-10-10T11:20:09.813Z,83.35
2016-10-10T11:21:10.534Z,82.87
2016-10-10T11:22:11.316Z,83.44
2016-10-10T11:23:12.054Z,83.35
2016-10-10T11:24:12.798Z,83.35
2016-10-10T11:25:13.559Z,82.82
2016-10-10T11:26:14.337Z,83.58
2016-10-10T11:27:15.092Z,84.25
2016-10-10T11:28:15.820Z,83.2
2016-10-10T11:29:16.587Z,82.43
2016-10-10T11:30:17.261Z,81.86
2016-10-10T11:31:18.026Z,81.67
2016-10-10T11:32:18.848Z,81.86
2016-10-10T11:33:19.598Z,81.58
2016-10-10T11:34:20.366Z,81.77
2016-10-10T11:35:21.164Z,81.9
2016-10-10T11:36:21.919Z,81.81
2016-10-10T11:37:22.709Z,82.29
2016-10-10T11:38:23.516Z,81.77
2016-10-10T11:39:24.227Z,81.9
2016-10-10T11:40:25.074Z,80.72
2016-10-10T11:41:25.847Z,79.19
2016-10-10T11:42:26.565Z,77.28
2016-10-10T11:43:27.333Z,77.09
2016-10-10T11:44:28.053Z,77.57
2016-10-10T11:45:28.807Z,78.05
2016-10-10T11:46:29.548Z,78.14
2016-10-10T11:47:30.289Z,79.38
2016-10-10T11:48:31.026Z,79.77
2016-10-10T11:49:31.780Z,79.96
2016-10-10T11:50:32.504Z,80.01
2016-10-10T11:51:33.253Z,80.01
2016-10-10T11:52:34.024Z,80.49
2016-10-10T11:53:34.798Z,80.39
2016-10-10T11:54:35.510Z,80.77
2016-10-10T11:55:36.250Z,80.58
2016-10-10T11:56:37.017Z,80.87
2016-10-10T11:57:37.797Z,81.44
2016-10-10T11:58:38.556Z,80.77
2016-10-10T11:59:39.323Z,80.58
2016-10-10T12:00:40.081Z,81.38
2016-10-10T12:01:40.804Z,81.01
2016-10-10T12:02:41.533Z,80.62
2016-10-10T12:03:42.273Z,80.81
2016-10-10T12:04:42.993Z,79.96
2016-10-10T12:05:43.761Z,79.77
2016-10-10T12:06:44.521Z,79.96
2016-10-10T12:07:45.265Z,79.19
2016-10-10T12:08:46.067Z,79.28
2016-10-10T12:09:46.769Z,78.62
2016-10-10T12:10:47.510Z,78.91
2016-10-10T12:11:48.212Z,79
2016-10-10T12:12:48.958Z,78.72
2016-10-10T12:13:49.686Z,79
2016-10-10T12:14:50.430Z,79.1
2016-10-10T12:15:51.177Z,80.24
2016-10-10T12:16:51.935Z,81.86
2016-10-10T12:17:52.678Z,84.01
2016-10-10T12:18:53.424Z,85.73
2016-10-10T12:19:54.240Z,86.3
2016-10-10T12:20:54.963Z,86.49
2016-10-10T12:21:55.743Z,86.11
2016-10-10T12:22:56.464Z,86.21
2016-10-10T12:23:57.231Z,86.4
2016-10-10T12:24:57.984Z,86.02
2016-10-10T12:25:58.738Z,86.98
2016-10-10T12:26:59.411Z,86.49
2016-10-10T12:28:00.183Z,87.26
2016-10-10T12:29:00.943Z,87.45
2016-10-10T12:30:01.726Z,87.64
2016-10-10T12:31:02.467Z,88.69
2016-10-10T12:32:03.260Z,89.07
2016-10-10T12:33:03.962Z,89.93
2016-10-10T12:34:04.736Z,90.5
2016-10-10T12:35:05.515Z,90.12
2016-10-10T12:36:06.279Z,90.59
2016-10-10T12:37:07.017Z,90.59
2016-10-10T12:38:07.790Z,90.98
2016-10-10T12:39:08.508Z,92.12
2016-10-10T12:40:09.285Z,91.74
2016-10-10T12:41:10.117Z,91.64
2016-10-10T12:42:10.826Z,90.88
2016-10-10T12:43:11.546Z,90.59
2016-10-10T12:44:12.334Z,90.98
2016-10-10T12:45:13.072Z,91.55
2016-10-10T12:46:13.778Z,91.55
2016-10-10T12:47:14.509Z,91.64
2016-10-10T12:48:15.219Z,91.74
2016-10-10T12:49:15.934Z,91.74
2016-10-10T12:50:16.721Z,90.98
2016-10-10T12:51:17.466Z,91.17
2016-10-10T12:52:18.234Z,91.02
2016-10-10T12:53:18.994Z,90.83
2016-10-10T12:54:19.686Z,90.69
2016-10-10T12:55:20.414Z,91.17
2016-10-10T12:56:21.225Z,90.55
2016-10-10T12:57:21.921Z,90.07
2016-10-10T12:58:22.640Z,90.03
2016-10-10T12:59:23.367Z,89.54
2016-10-10T13:00:24.091Z,90.22
2016-10-10T13:01:24.844Z,90.03
2016-10-10T13:02:25.645Z,89.74